Time;durP1;ratioP1;P1;durP2;ratioP2;P2;SDS_P1;SDS_P2;PMS_P1;PMS_P2;Temp;Humidity;BMP_temperature;BMP_pressure;BME280_temperature;BME280_humidity;BME280_pressure;Samples;Min_cycle;Max_cycle;Signal;HPM_P1;HPM_P2
2024/02/05 00:03:01;;;;;;;0.63;0.40;;;;;;;10.58;85.78;97541.22;6129252;29;20687;-55
2024/02/05 00:06:04;;;;;;;1.23;0.60;;;;;;;10.45;85.41;97586.88;6133742;29;20204;-57
2024/02/05 00:09:07;;;;;;;1.30;0.60;;;;;;;10.52;86.07;97571.53;6141256;29;20301;-58
2024/02/05 00:12:09;;;;;;;0.50;0.50;;;;;;;10.62;83.68;97586.84;6136075;29;20214;-57
2024/02/05 00:15:12;;;;;;;1.43;0.50;;;;;;;10.58;87.21;97602.50;6136546;29;20217;-57
2024/02/05 00:18:14;;;;;;;0.50;0.47;;;;;;;10.57;84.41;97614.22;6138297;29;20584;-57
2024/02/05 00:21:18;;;;;;;1.13;0.47;;;;;;;10.92;81.80;97604.31;6138876;29;20399;-55
2024/02/05 00:24:20;;;;;;;1.90;0.60;;;;;;;10.75;83.76;97591.03;6143585;29;20213;-57
2024/02/05 00:27:22;;;;;;;1.10;0.53;;;;;;;10.70;82.71;97559.81;6132464;29;20656;-55
2024/02/05 00:30:24;;;;;;;0.77;0.50;;;;;;;10.67;82.35;97592.25;6141873;29;20566;-55
2024/02/05 00:33:26;;;;;;;0.50;0.50;;;;;;;10.69;81.71;97550.19;6136626;29;20217;-59
2024/02/05 00:36:29;;;;;;;0.60;0.47;;;;;;;10.97;78.27;97538.56;6135084;29;20224;-56
2024/02/05 00:39:31;;;;;;;0.80;0.60;;;;;;;10.76;81.86;97582.00;6139091;29;20546;-56
2024/02/05 00:42:33;;;;;;;1.00;0.40;;;;;;;10.90;78.86;97572.59;6143166;29;20641;-58
2024/02/05 00:45:36;;;;;;;0.60;0.50;;;;;;;10.56;81.15;97564.66;6136724;29;20207;-57
2024/02/05 00:48:39;;;;;;;0.97;0.50;;;;;;;10.83;80.30;97580.75;6137380;28;20217;-55
2024/02/05 00:51:41;;;;;;;1.20;0.60;;;;;;;10.79;79.51;97600.16;6141585;28;20209;-57
2024/02/05 00:54:43;;;;;;;0.83;0.67;;;;;;;10.70;81.66;97543.00;6137628;29;20267;-58
2024/02/05 00:57:46;;;;;;;1.50;0.50;;;;;;;10.75;80.72;97535.88;6145119;29;20317;-57
2024/02/05 01:00:48;;;;;;;0.70;0.47;;;;;;;10.76;80.09;97542.03;6132817;29;20586;-57
2024/02/05 01:03:51;;;;;;;0.30;0.30;;;;;;;10.69;82.38;97554.69;6139584;29;20678;-58
2024/02/05 01:06:54;;;;;;;0.70;0.53;;;;;;;10.64;81.59;97526.16;6136875;29;20212;-57
2024/02/05 01:09:56;;;;;;;3.83;0.60;;;;;;;10.76;79.48;97563.34;6139650;29;20654;-55
2024/02/05 01:12:58;;;;;;;0.80;0.50;;;;;;;10.85;78.95;97557.34;6139673;29;20851;-56
2024/02/05 01:16:02;;;;;;;2.07;0.40;;;;;;;10.97;78.19;97503.09;6141661;29;20694;-58
2024/02/05 01:19:05;;;;;;;1.37;0.80;;;;;;;10.80;79.81;97522.63;6142091;29;20725;-56
2024/02/05 01:22:07;;;;;;;0.73;0.60;;;;;;;10.68;81.71;97529.13;6142396;29;20205;-56
2024/02/05 01:25:09;;;;;;;1.13;0.40;;;;;;;10.69;78.93;97509.41;6137163;29;20709;-57
2024/02/05 01:28:11;;;;;;;0.70;0.70;;;;;;;10.81;78.63;97518.09;6142933;29;20213;-57
2024/02/05 01:31:14;;;;;;;1.07;0.43;;;;;;;10.69;80.95;97506.75;6139882;29;20635;-58
2024/02/05 01:34:17;;;;;;;1.13;0.50;;;;;;;10.83;76.98;97494.66;6143262;29;20199;-57
2024/02/05 01:37:19;;;;;;;1.53;0.70;;;;;;;10.76;77.80;97499.38;6140156;29;20216;-58
2024/02/05 01:40:21;;;;;;;1.53;0.50;;;;;;;10.70;78.77;97511.84;6141899;29;20201;-58
2024/02/05 01:43:23;;;;;;;0.77;0.57;;;;;;;10.63;79.00;97542.38;6134921;29;20198;-56
2024/02/05 01:46:29;;;;;;;0.70;0.63;;;;;;;10.61;78.86;97510.66;6138964;29;20670;-57
2024/02/05 01:49:32;;;;;;;1.33;0.60;;;;;;;10.70;79.79;97545.69;6136448;29;20399;-58
2024/02/05 01:52:39;;;;;;;1.20;0.60;;;;;;;10.51;78.69;97492.66;6137561;29;20201;-58
2024/02/05 01:55:43;;;;;;;3.03;0.90;;;;;;;10.61;77.96;97494.66;6135947;29;20241;-57
2024/02/05 01:58:46;;;;;;;1.10;0.63;;;;;;;10.55;78.92;97488.47;6139558;29;20698;-57
2024/02/05 02:01:49;;;;;;;0.80;0.50;;;;;;;10.55;78.88;97493.00;6134971;29;20198;-58
2024/02/05 02:04:51;;;;;;;0.77;0.50;;;;;;;10.57;79.17;97510.31;6131567;29;20277;-57
2024/02/05 02:07:54;;;;;;;2.00;0.60;;;;;;;10.51;79.74;97471.38;6137197;29;20655;-59
2024/02/05 02:10:56;;;;;;;1.37;0.70;;;;;;;10.40;80.30;97522.88;6143975;29;20193;-58
2024/02/05 02:13:58;;;;;;;2.17;0.50;;;;;;;10.49;79.82;97523.25;6135617;29;20192;-59
2024/02/05 02:17:01;;;;;;;2.10;0.87;;;;;;;10.41;81.10;97500.53;6137690;29;20217;-58
2024/02/05 02:20:03;;;;;;;0.60;0.60;;;;;;;10.44;79.69;97502.72;6133859;29;20209;-59
2024/02/05 02:23:12;;;;;;;1.23;0.60;;;;;;;10.32;80.01;97476.16;6130148;29;20247;-59
2024/02/05 02:26:14;;;;;;;0.80;0.57;;;;;;;10.13;81.15;97458.81;6142795;29;20554;-57
2024/02/05 02:29:16;;;;;;;0.93;0.80;;;;;;;10.33;79.11;97463.66;6141600;29;20557;-57
2024/02/05 02:32:40;;;;;;;1.07;0.97;;;;;;;10.47;78.45;97464.09;6132356;29;20683;-58
2024/02/05 02:36:00;;;;;;;0.90;0.60;;;;;;;10.42;79.88;97467.50;6132905;29;20240;-58
2024/02/05 02:39:11;;;;;;;0.97;0.70;;;;;;;10.25;81.12;97456.09;6133609;29;20191;-59
2024/02/05 02:42:16;;;;;;;1.80;0.63;;;;;;;10.33;80.29;97458.31;6141044;29;20658;-59
2024/02/05 02:45:19;;;;;;;1.57;0.60;;;;;;;10.39;81.05;97451.22;6133134;29;20209;-59
2024/02/05 02:48:21;;;;;;;2.73;0.70;;;;;;;10.43;79.42;97474.44;6131990;29;20575;-58
2024/02/05 02:51:24;;;;;;;0.80;0.50;;;;;;;10.28;79.97;97435.09;6114186;29;20196;-59
2024/02/05 02:54:26;;;;;;;1.07;0.60;;;;;;;10.41;79.32;97471.22;6118576;29;20215;-59
2024/02/05 02:57:28;;;;;;;1.30;0.70;;;;;;;10.37;79.21;97435.50;6115819;29;20219;-58
2024/02/05 03:00:31;;;;;;;1.27;0.60;;;;;;;10.44;79.08;97429.97;6104698;29;20739;-59
2024/02/05 03:03:33;;;;;;;1.80;0.60;;;;;;;10.44;79.33;97485.91;6113333;29;20216;-59
2024/02/05 03:06:35;;;;;;;0.63;0.60;;;;;;;10.44;78.61;97419.31;6114965;29;20199;-57
2024/02/05 03:09:37;;;;;;;0.87;0.50;;;;;;;10.27;80.67;97461.97;6117697;29;20626;-58
2024/02/05 03:12:39;;;;;;;0.70;0.47;;;;;;;10.21;80.90;97409.69;6108305;29;20214;-57
2024/02/05 03:15:42;;;;;;;0.60;0.60;;;;;;;10.19;80.77;97425.09;6110547;29;20199;-58
2024/02/05 03:18:44;;;;;;;0.60;0.47;;;;;;;10.26;79.12;97401.81;6114499;29;20201;-58
2024/02/05 03:21:46;;;;;;;1.30;0.70;;;;;;;10.32;78.91;97412.25;6111690;29;20284;-59
2024/02/05 03:24:48;;;;;;;0.77;0.60;;;;;;;10.31;78.56;97399.22;6106890;29;20330;-59
2024/02/05 03:27:51;;;;;;;0.60;0.50;;;;;;;10.29;78.12;97427.91;6110988;29;20673;-59
2024/02/05 03:30:53;;;;;;;1.07;0.70;;;;;;;10.36;78.41;97393.13;6108966;29;20290;-59
2024/02/05 03:33:55;;;;;;;0.77;0.53;;;;;;;10.32;78.87;97414.94;6113912;29;20201;-58
2024/02/05 03:36:58;;;;;;;1.23;0.57;;;;;;;10.21;79.18;97412.34;6116755;29;20330;-57
2024/02/05 03:40:00;;;;;;;1.13;0.50;;;;;;;10.23;78.95;97424.34;6101197;29;20231;-59
2024/02/05 03:43:03;;;;;;;0.93;0.60;;;;;;;10.11;80.32;97414.88;6116460;29;20784;-59
2024/02/05 03:46:06;;;;;;;0.93;0.70;;;;;;;10.02;80.41;97419.81;6105184;29;20212;-59
2024/02/05 03:49:08;;;;;;;1.33;0.50;;;;;;;10.03;79.60;97435.53;6119894;28;20240;-57
2024/02/05 03:52:10;;;;;;;0.60;0.60;;;;;;;9.89;80.89;97420.94;6139390;29;20201;-59
2024/02/05 03:55:13;;;;;;;1.03;0.80;;;;;;;9.97;80.34;97412.56;6137580;29;20204;-59
2024/02/05 03:58:16;;;;;;;4.80;0.90;;;;;;;9.97;80.13;97436.50;6141729;29;20217;-58
2024/02/05 04:01:18;;;;;;;0.67;0.40;;;;;;;9.83;80.64;97428.03;6133753;29;20195;-58
2024/02/05 04:04:21;;;;;;;0.60;0.60;;;;;;;9.71;82.72;97432.66;6136830;29;20199;-59
2024/02/05 04:07:24;;;;;;;2.70;0.80;;;;;;;9.73;82.27;97438.53;6129823;29;20240;-58
2024/02/05 04:10:29;;;;;;;1.30;0.63;;;;;;;9.67;83.09;97478.59;6138170;28;20191;-58
2024/02/05 04:13:31;;;;;;;1.07;0.50;;;;;;;9.92;79.50;97463.03;6134057;29;20711;-58
2024/02/05 04:16:33;;;;;;;0.70;0.50;;;;;;;9.88;79.11;97429.16;6130247;29;20718;-56
2024/02/05 04:19:39;;;;;;;2.50;0.83;;;;;;;9.72;81.96;97468.84;6132463;29;20195;-59
2024/02/05 04:22:42;;;;;;;1.70;0.60;;;;;;;9.68;81.74;97456.25;6131326;29;20307;-59
2024/02/05 04:25:44;;;;;;;1.13;0.50;;;;;;;9.83;79.89;97464.47;6134685;29;20203;-58
2024/02/05 04:28:47;;;;;;;1.33;0.80;;;;;;;9.74;80.33;97460.59;6129547;29;20205;-58
2024/02/05 04:31:50;;;;;;;3.03;0.60;;;;;;;9.85;78.54;97481.00;6135910;29;20862;-57
2024/02/05 04:34:52;;;;;;;0.73;0.50;;;;;;;9.52;81.92;97466.66;6129071;29;20184;-57
2024/02/05 04:37:55;;;;;;;0.83;0.43;;;;;;;9.54;81.18;97488.47;6133191;28;20302;-58
2024/02/05 04:40:57;;;;;;;1.37;0.73;;;;;;;9.56;80.72;97512.19;6128065;29;20203;-58
2024/02/05 04:43:59;;;;;;;0.90;0.60;;;;;;;9.59;80.30;97521.53;6132246;29;20203;-59
2024/02/05 04:47:01;;;;;;;1.13;0.57;;;;;;;9.53;80.08;97513.47;6134758;29;20232;-59
2024/02/05 04:50:03;;;;;;;1.17;0.70;;;;;;;9.37;82.87;97548.00;6129671;29;20257;-58
2024/02/05 04:53:06;;;;;;;1.47;0.90;;;;;;;9.45;82.44;97521.81;6134716;28;21005;-59
2024/02/05 04:56:08;;;;;;;1.00;0.57;;;;;;;9.24;82.85;97509.19;6132627;29;20192;-58
2024/02/05 04:59:11;;;;;;;0.77;0.60;;;;;;;9.45;81.16;97526.31;6132986;29;20663;-59
2024/02/05 05:02:13;;;;;;;2.33;0.70;;;;;;;9.35;82.47;97532.25;6135496;29;20203;-58
2024/02/05 05:05:15;;;;;;;1.03;0.50;;;;;;;9.33;82.82;97523.72;6132820;29;20567;-57
2024/02/05 05:08:18;;;;;;;2.17;0.73;;;;;;;9.38;82.40;97537.13;6129332;29;20195;-58
2024/02/05 05:11:23;;;;;;;1.60;0.80;;;;;;;9.24;84.11;97543.75;6134214;29;20655;-58
2024/02/05 05:14:25;;;;;;;2.17;0.90;;;;;;;9.31;83.84;97573.69;6132903;29;20199;-59
2024/02/05 05:17:27;;;;;;;1.07;0.80;;;;;;;9.19;86.33;97555.09;6130576;29;20774;-60
2024/02/05 05:20:29;;;;;;;0.80;0.70;;;;;;;9.23;85.23;97595.31;6135802;29;20230;-58
2024/02/05 05:23:31;;;;;;;0.70;0.70;;;;;;;9.31;83.96;97547.09;6136304;29;20632;-59
2024/02/05 05:26:33;;;;;;;1.33;0.80;;;;;;;9.36;83.32;97580.91;6132843;29;20791;-56
2024/02/05 05:29:35;;;;;;;2.10;0.70;;;;;;;9.22;84.54;97575.88;6137702;29;20204;-58
2024/02/05 05:32:38;;;;;;;0.90;0.70;;;;;;;9.38;84.33;97576.19;6141576;29;20202;-58
2024/02/05 05:35:40;;;;;;;1.03;0.60;;;;;;;9.37;83.44;97587.88;6138516;29;20679;-57
2024/02/05 05:38:42;;;;;;;0.80;0.70;;;;;;;9.39;83.69;97594.56;6142548;29;20261;-59
2024/02/05 05:41:44;;;;;;;0.67;0.60;;;;;;;9.39;83.36;97597.22;6138460;29;20207;-57
2024/02/05 05:44:46;;;;;;;0.73;0.73;;;;;;;9.39;82.52;97607.84;6144840;29;20188;-58
2024/02/05 05:47:48;;;;;;;1.03;0.63;;;;;;;9.37;82.29;97606.47;6141779;28;20202;-58
2024/02/05 05:50:50;;;;;;;0.83;0.70;;;;;;;9.37;82.11;97590.53;6143290;28;20249;-59
2024/02/05 05:53:53;;;;;;;1.57;0.60;;;;;;;9.15;83.62;97612.41;6131493;29;20209;-58
2024/02/05 05:56:55;;;;;;;0.77;0.70;;;;;;;9.26;82.93;97592.16;6138464;29;20245;-58
2024/02/05 05:59:57;;;;;;;1.00;0.57;;;;;;;9.18;83.04;97584.56;6138602;29;20191;-57
2024/02/05 06:02:59;;;;;;;1.27;0.60;;;;;;;9.15;84.76;97593.81;6140455;29;20206;-57
2024/02/05 06:06:03;;;;;;;0.97;0.50;;;;;;;8.89;86.39;97615.56;6144642;29;20199;-58
2024/02/05 06:09:05;;;;;;;0.87;0.60;;;;;;;9.10;84.02;97625.59;6135933;29;20191;-57
2024/02/05 06:12:07;;;;;;;1.47;0.70;;;;;;;9.07;84.93;97615.44;6143728;29;20194;-59
2024/02/05 06:15:11;;;;;;;0.60;0.60;;;;;;;9.28;82.81;97619.31;6136454;29;20371;-59
2024/02/05 06:18:13;;;;;;;0.87;0.70;;;;;;;9.31;82.16;97629.50;6137954;29;20219;-59
2024/02/05 06:21:15;;;;;;;0.80;0.60;;;;;;;9.28;82.60;97627.31;6144407;29;20207;-59
2024/02/05 06:24:18;;;;;;;0.40;0.40;;;;;;;9.21;82.95;97623.94;6135892;29;20224;-59
2024/02/05 06:27:22;;;;;;;2.20;0.50;;;;;;;9.15;83.61;97640.84;6133772;29;20275;-58
2024/02/05 06:30:24;;;;;;;0.47;0.47;;;;;;;9.22;82.21;97631.72;6135668;29;20211;-58
2024/02/05 06:33:26;;;;;;;0.60;0.50;;;;;;;9.24;82.30;97624.28;6129620;29;20227;-58
2024/02/05 06:36:27;;;;;;;0.50;0.50;;;;;;;9.30;81.93;97660.56;6128958;29;20206;-59
2024/02/05 06:39:29;;;;;;;1.03;0.47;;;;;;;9.29;82.34;97663.47;6138953;29;20203;-57
2024/02/05 06:42:31;;;;;;;0.70;0.50;;;;;;;9.14;83.80;97673.78;6132719;29;20523;-57
2024/02/05 06:45:36;;;;;;;1.33;0.53;;;;;;;9.08;83.89;97659.56;6135435;29;20195;-58
2024/02/05 06:48:39;;;;;;;0.87;0.40;;;;;;;9.17;83.34;97662.69;6126755;28;20203;-59
2024/02/05 06:51:41;;;;;;;4.33;0.60;;;;;;;9.22;82.98;97655.63;6132006;29;20210;-59
2024/02/05 06:54:43;;;;;;;0.47;0.47;;;;;;;9.11;83.11;97669.72;6137323;29;20194;-58
2024/02/05 06:57:45;;;;;;;0.40;0.40;;;;;;;9.11;83.51;97667.06;6131884;29;20203;-56
2024/02/05 07:00:47;;;;;;;0.80;0.30;;;;;;;9.26;81.57;97682.53;6138592;29;20197;-59
2024/02/05 07:03:49;;;;;;;1.17;0.50;;;;;;;9.27;80.93;97679.66;6143247;29;20198;-59
2024/02/05 07:06:51;;;;;;;1.37;0.40;;;;;;;9.14;82.33;97679.88;6134439;29;20779;-58
2024/02/05 07:09:53;;;;;;;0.50;0.40;;;;;;;9.36;79.87;97669.47;6136477;29;20274;-59
2024/02/05 07:12:55;;;;;;;1.03;0.60;;;;;;;9.32;81.27;97676.31;6132964;29;20202;-58
2024/02/05 07:15:57;;;;;;;0.57;0.40;;;;;;;9.29;80.76;97655.50;6136899;29;20198;-59
2024/02/05 07:18:59;;;;;;;0.80;0.50;;;;;;;9.32;82.20;97651.56;6138060;29;20212;-58
2024/02/05 07:22:01;;;;;;;0.30;0.30;;;;;;;9.23;79.95;97657.25;6131387;29;20198;-58
2024/02/05 07:25:03;;;;;;;3.30;0.63;;;;;;;9.44;79.31;97671.75;6134801;29;20611;-57
2024/02/05 07:28:06;;;;;;;1.43;0.67;;;;;;;9.34;78.83;97652.94;6134274;29;20195;-58
2024/02/05 07:31:09;;;;;;;3.27;0.40;;;;;;;9.34;79.17;97655.59;6142980;29;20206;-58
2024/02/05 07:34:11;;;;;;;1.37;0.40;;;;;;;9.26;78.58;97690.50;6130688;29;20277;-56
2024/02/05 07:37:13;;;;;;;0.83;0.40;;;;;;;9.28;79.41;97672.50;6136228;29;20215;-57
2024/02/05 07:40:15;;;;;;;0.30;0.30;;;;;;;9.34;77.23;97670.75;6133956;29;20660;-57
2024/02/05 07:43:17;;;;;;;0.83;0.77;;;;;;;9.31;77.83;97680.00;6130730;29;20267;-57
2024/02/05 07:46:20;;;;;;;2.37;0.30;;;;;;;9.29;78.60;97698.81;6142340;28;20833;-57
2024/02/05 07:49:22;;;;;;;0.53;0.43;;;;;;;9.40;78.52;97691.88;6137387;28;20234;-58
2024/02/05 07:52:25;;;;;;;0.30;0.30;;;;;;;9.44;76.57;97702.84;6143138;29;20191;-58
2024/02/05 07:55:27;;;;;;;0.77;0.50;;;;;;;9.37;78.31;97710.97;6134719;29;20301;-57
2024/02/05 07:58:29;;;;;;;0.80;0.60;;;;;;;9.44;75.93;97716.97;6134575;29;20211;-57
2024/02/05 08:01:32;;;;;;;0.43;0.40;;;;;;;9.52;75.65;97742.41;6126671;29;20947;-56
2024/02/05 08:04:33;;;;;;;0.20;0.20;;;;;;;9.39;77.69;97763.91;6137300;29;20206;-56
2024/02/05 08:07:35;;;;;;;0.30;0.30;;;;;;;9.47;77.27;97758.25;6136843;29;20342;-58
2024/02/05 08:10:38;;;;;;;1.30;0.30;;;;;;;9.48;77.16;97754.53;6133713;29;20199;-58
2024/02/05 08:13:40;;;;;;;0.40;0.40;;;;;;;9.46;76.79;97768.06;6134964;29;20618;-59
2024/02/05 08:16:41;;;;;;;0.93;0.30;;;;;;;9.42;76.24;97755.47;6128897;29;20278;-59
2024/02/05 08:19:43;;;;;;;0.33;0.30;;;;;;;9.53;74.75;97782.03;6133638;29;20206;-58
2024/02/05 08:22:45;;;;;;;0.63;0.30;;;;;;;9.69;74.03;97750.47;6129821;29;20202;-58
2024/02/05 08:25:47;;;;;;;0.50;0.30;;;;;;;9.67;74.38;97795.91;6123859;29;20217;-58
2024/02/05 08:28:50;;;;;;;0.40;0.30;;;;;;;9.71;75.20;97785.63;6128887;29;20874;-58
2024/02/05 08:31:52;;;;;;;0.53;0.40;;;;;;;9.70;75.15;97819.38;6133299;29;20209;-58
2024/02/05 08:34:55;;;;;;;0.20;0.20;;;;;;;9.86;73.60;97783.28;6134004;29;20218;-56
2024/02/05 08:37:57;;;;;;;0.40;0.33;;;;;;;9.85;74.23;97786.16;6136576;29;20211;-57
2024/02/05 08:40:59;;;;;;;0.20;0.20;;;;;;;9.83;73.32;97778.44;6134212;29;20252;-57
2024/02/05 08:44:02;;;;;;;0.87;0.30;;;;;;;9.96;71.40;97785.34;6139373;29;20198;-54
2024/02/05 08:47:04;;;;;;;0.50;0.33;;;;;;;10.21;69.80;97785.06;6135185;29;20197;-57
2024/02/05 08:50:06;;;;;;;0.30;0.30;;;;;;;10.28;69.93;97799.84;6134511;29;20693;-58
2024/02/05 08:53:09;;;;;;;0.50;0.20;;;;;;;10.14;71.88;97793.16;6131931;29;20298;-58
2024/02/05 08:56:10;;;;;;;0.60;0.33;;;;;;;10.25;72.27;97796.88;6132185;29;20273;-58
2024/02/05 08:59:12;;;;;;;1.00;0.40;;;;;;;10.30;71.88;97804.97;6143176;29;20251;-58
2024/02/05 09:02:15;;;;;;;0.23;0.23;;;;;;;10.50;71.03;97805.34;6145100;29;20201;-58
2024/02/05 09:05:17;;;;;;;0.30;0.30;;;;;;;10.38;70.26;97798.44;6137026;28;20678;-57
2024/02/05 09:08:25;;;;;;;0.50;0.30;;;;;;;10.65;69.00;97802.16;6134036;29;20189;-56
2024/02/05 09:11:31;;;;;;;1.23;0.40;;;;;;;10.58;69.37;97810.28;6146013;29;20196;-57
2024/02/05 09:14:37;;;;;;;0.40;0.23;;;;;;;10.65;68.76;97815.47;6138109;29;20210;-57
2024/02/05 09:17:38;;;;;;;0.40;0.40;;;;;;;10.68;68.32;97807.00;6137901;29;20257;-58
2024/02/05 09:20:44;;;;;;;0.40;0.40;;;;;;;10.84;68.84;97798.25;6132468;29;20197;-58
2024/02/05 09:23:46;;;;;;;1.13;0.40;;;;;;;10.75;67.88;97780.22;6140962;29;20224;-59
2024/02/05 09:26:48;;;;;;;3.03;0.40;;;;;;;10.80;67.20;97821.09;6142086;29;20215;-58
2024/02/05 09:29:50;;;;;;;0.87;0.30;;;;;;;10.90;65.65;97793.81;6140185;29;20197;-57
2024/02/05 09:32:51;;;;;;;1.23;0.40;;;;;;;10.96;67.48;97811.50;6143943;29;20967;-57
2024/02/05 09:35:53;;;;;;;1.80;0.50;;;;;;;11.14;65.06;97834.47;6138931;29;20203;-59
2024/02/05 09:38:55;;;;;;;5.00;0.50;;;;;;;11.03;63.45;97846.81;6144418;29;20690;-57
2024/02/05 09:42:00;;;;;;;0.60;0.30;;;;;;;11.08;64.21;97844.25;6140373;29;20204;-57
2024/02/05 09:45:04;;;;;;;0.37;0.30;;;;;;;11.18;64.40;97848.94;6126045;29;20398;-56
2024/02/05 09:48:08;;;;;;;1.97;0.50;;;;;;;11.26;64.38;97839.72;6132524;29;20273;-58
2024/02/05 09:51:12;;;;;;;2.60;0.47;;;;;;;11.49;61.95;97841.41;6122146;29;20284;-58
2024/02/05 09:54:16;;;;;;;2.20;0.43;;;;;;;11.38;63.51;97845.78;6133667;29;20254;-58
2024/02/05 09:57:29;;;;;;;0.83;0.60;;;;;;;11.49;62.62;97858.22;6133735;29;20206;-57
2024/02/05 10:00:31;;;;;;;2.23;0.40;;;;;;;11.50;62.83;97859.84;6135401;28;20390;-58
2024/02/05 10:03:34;;;;;;;1.50;0.70;;;;;;;11.62;64.51;97862.41;6131352;29;20221;-58
2024/02/05 10:06:39;;;;;;;1.00;0.50;;;;;;;11.66;62.25;97858.22;6140907;29;20204;-58
2024/02/05 10:09:43;;;;;;;1.13;0.40;;;;;;;11.72;62.07;97835.06;6132470;29;20689;-56
2024/02/05 10:12:49;;;;;;;1.17;0.60;;;;;;;11.84;61.88;97859.84;6137287;29;20207;-58
2024/02/05 10:15:51;;;;;;;0.80;0.60;;;;;;;12.04;60.71;97854.78;6144580;29;20852;-59
2024/02/05 10:18:53;;;;;;;1.43;0.40;;;;;;;12.09;60.88;97846.03;6135334;29;20703;-56
2024/02/05 10:21:56;;;;;;;0.80;0.50;;;;;;;12.21;60.63;97859.25;6136336;29;20205;-57
2024/02/05 10:25:01;;;;;;;1.10;0.30;;;;;;;12.49;60.38;97863.63;6141076;29;20670;-59
2024/02/05 10:28:04;;;;;;;0.90;0.60;;;;;;;12.50;60.62;97844.66;6140889;28;20730;-56
2024/02/05 10:31:07;;;;;;;0.50;0.33;;;;;;;12.26;57.12;97875.34;6138949;28;20201;-58
2024/02/05 10:34:21;;;;;;;2.23;0.60;;;;;;;12.25;58.09;97865.72;6138038;29;20664;-57
2024/02/05 10:37:24;;;;;;;4.70;0.50;;;;;;;11.92;59.04;97898.66;6136541;29;20776;-58
2024/02/05 10:40:34;;;;;;;2.30;0.60;;;;;;;11.62;59.07;97868.59;6134148;29;20202;-58
2024/02/05 10:43:39;;;;;;;1.93;0.50;;;;;;;11.66;59.43;97860.06;6135776;29;20208;-58
2024/02/05 10:46:42;;;;;;;2.93;0.60;;;;;;;11.67;60.93;97824.31;6141205;29;20191;-56
2024/02/05 10:49:46;;;;;;;1.60;0.80;;;;;;;11.38;60.90;97883.13;6138611;29;20238;-58
2024/02/05 10:52:48;;;;;;;1.53;0.60;;;;;;;11.00;61.26;97857.94;6138235;29;20204;-57
2024/02/05 10:55:56;;;;;;;1.47;0.50;;;;;;;11.03;62.07;97849.47;6139160;29;20214;-58
2024/02/05 10:58:59;;;;;;;4.20;1.03;;;;;;;11.03;62.52;97860.16;6142886;29;20230;-59
2024/02/05 11:02:28;;;;;;;0.60;0.50;;;;;;;11.05;65.07;97846.56;6135701;29;20708;-58
2024/02/05 11:05:32;;;;;;;0.97;0.50;;;;;;;11.19;65.08;97839.06;6138638;29;20202;-58
2024/02/05 11:08:39;;;;;;;3.37;0.70;;;;;;;11.17;62.45;97844.63;6128327;29;20189;-57
2024/02/05 11:11:46;;;;;;;2.23;0.57;;;;;;;11.22;63.79;97859.91;6135804;29;20202;-57
2024/02/05 11:14:53;;;;;;;2.60;0.70;;;;;;;11.07;63.49;97850.59;6136438;28;20204;-58
2024/02/05 11:17:58;;;;;;;2.20;0.80;;;;;;;11.15;65.34;97854.72;6129837;29;20526;-58
2024/02/05 11:21:03;;;;;;;2.73;0.73;;;;;;;11.19;63.50;97850.53;6136637;28;20199;-58
2024/02/05 11:24:07;;;;;;;2.03;0.80;;;;;;;11.13;63.02;97846.16;6132320;29;20194;-57
2024/02/05 11:27:11;;;;;;;2.13;0.53;;;;;;;11.18;64.75;97850.75;6133201;29;20203;-58
2024/02/05 11:30:15;;;;;;;1.83;0.73;;;;;;;11.04;63.89;97853.75;6143283;29;20193;-58
2024/02/05 11:33:26;;;;;;;2.13;0.60;;;;;;;10.98;65.84;97878.69;6132523;29;20273;-57
2024/02/05 11:36:29;;;;;;;1.17;0.50;;;;;;;11.16;65.74;97845.69;6136674;29;20693;-58
2024/02/05 11:39:31;;;;;;;1.33;0.83;;;;;;;11.48;63.53;97834.47;6131701;29;20225;-57
2024/02/05 11:42:33;;;;;;;3.70;1.10;;;;;;;11.68;62.98;97810.75;6130524;29;20213;-58
2024/02/05 11:45:36;;;;;;;3.00;0.97;;;;;;;11.51;61.90;97833.97;6135378;29;20281;-57
2024/02/05 11:48:40;;;;;;;3.27;0.80;;;;;;;11.52;63.12;97822.25;6133384;29;20760;-57
2024/02/05 11:51:43;;;;;;;2.93;0.90;;;;;;;11.66;61.42;97812.03;6136278;29;20200;-57
2024/02/05 11:54:46;;;;;;;5.13;1.50;;;;;;;11.79;60.54;97817.03;6135176;29;20195;-56
2024/02/05 11:57:49;;;;;;;3.87;0.80;;;;;;;12.00;61.43;97810.94;6133838;29;20858;-58
2024/02/05 12:00:55;;;;;;;1.37;0.87;;;;;;;12.19;58.96;97787.41;6133447;29;20896;-58
2024/02/05 12:03:57;;;;;;;2.43;0.90;;;;;;;12.20;58.15;97820.25;6138224;29;20202;-57
2024/02/05 12:07:00;;;;;;;1.73;0.90;;;;;;;12.06;57.50;97814.47;6139557;29;20199;-59
2024/02/05 12:10:02;;;;;;;3.67;0.90;;;;;;;12.04;57.15;97805.91;6134066;29;20250;-58
2024/02/05 12:13:04;;;;;;;2.70;1.20;;;;;;;12.13;56.43;97791.09;6142559;29;20770;-58
2024/02/05 12:16:13;;;;;;;2.13;1.00;;;;;;;12.03;57.74;97797.09;6139766;29;20326;-59
2024/02/05 12:19:22;;;;;;;1.90;0.80;;;;;;;11.95;58.33;97765.47;6140426;29;20589;-56
2024/02/05 12:22:27;;;;;;;3.00;0.93;;;;;;;11.99;57.04;97785.28;6139364;29;20213;-57
2024/02/05 12:25:29;;;;;;;3.07;0.90;;;;;;;11.94;57.59;97774.56;6136066;29;20202;-58
2024/02/05 12:28:43;;;;;;;2.20;0.70;;;;;;;12.02;56.15;97765.28;6134464;29;20584;-58
2024/02/05 12:31:45;;;;;;;2.27;0.73;;;;;;;11.93;56.65;97742.78;6137576;28;20216;-57
2024/02/05 12:34:48;;;;;;;2.07;0.80;;;;;;;11.98;56.94;97757.00;6144356;29;20566;-59
2024/02/05 12:37:53;;;;;;;4.10;0.73;;;;;;;11.99;55.86;97729.22;6136101;29;20210;-56
2024/02/05 12:40:57;;;;;;;2.87;1.13;;;;;;;12.12;56.13;97776.13;6138861;29;20345;-57
2024/02/05 12:43:59;;;;;;;3.73;0.93;;;;;;;12.23;56.27;97751.13;6146610;29;20570;-59
2024/02/05 12:47:01;;;;;;;4.57;0.73;;;;;;;12.25;56.00;97754.34;6139520;29;20207;-58
2024/02/05 12:50:04;;;;;;;4.40;1.20;;;;;;;12.43;56.84;97736.38;6143566;29;20266;-58
2024/02/05 12:53:08;;;;;;;2.17;0.90;;;;;;;12.47;57.30;97758.88;6134676;29;20198;-57
2024/02/05 12:56:11;;;;;;;2.67;0.77;;;;;;;12.31;57.10;97748.00;6138330;29;20572;-55
2024/02/05 12:59:15;;;;;;;3.03;1.13;;;;;;;12.40;56.92;97751.84;6133726;29;20282;-58
2024/02/05 13:02:17;;;;;;;2.03;0.90;;;;;;;12.47;56.96;97770.38;6141111;29;20202;-58
2024/02/05 13:05:22;;;;;;;2.90;0.73;;;;;;;12.37;55.75;97754.22;6143568;29;20660;-59
2024/02/05 13:08:28;;;;;;;3.87;0.97;;;;;;;12.34;57.31;97744.84;6137501;29;20680;-59
2024/02/05 13:11:30;;;;;;;4.60;1.00;;;;;;;12.31;56.11;97755.22;6136954;29;20576;-58
2024/02/05 13:14:33;;;;;;;3.60;0.80;;;;;;;12.34;56.35;97746.69;6140571;29;20214;-56
2024/02/05 13:17:35;;;;;;;4.87;1.20;;;;;;;12.31;56.67;97739.97;6138341;29;20471;-58
2024/02/05 13:20:39;;;;;;;1.73;0.60;;;;;;;12.25;55.95;97751.69;6131511;29;20557;-58
2024/02/05 13:23:41;;;;;;;2.93;0.90;;;;;;;12.33;54.68;97753.09;6139109;29;20671;-56
2024/02/05 13:26:51;;;;;;;3.10;1.07;;;;;;;12.30;54.27;97754.41;6146177;29;20195;-58
2024/02/05 13:29:53;;;;;;;3.07;0.83;;;;;;;12.12;54.69;97742.22;6139819;29;20584;-57
2024/02/05 13:32:56;;;;;;;4.90;1.37;;;;;;;12.09;55.35;97747.22;6138860;29;20797;-58
2024/02/05 13:35:58;;;;;;;3.77;1.07;;;;;;;12.12;55.04;97768.09;6133545;29;20187;-58
2024/02/05 13:39:04;;;;;;;3.53;1.07;;;;;;;12.08;54.99;97758.97;6127008;29;20504;-58
2024/02/05 13:42:07;;;;;;;3.70;0.90;;;;;;;12.06;54.82;97742.38;6130786;29;20292;-57
2024/02/05 13:45:12;;;;;;;2.40;1.00;;;;;;;12.03;54.32;97738.34;6135637;29;20294;-57
2024/02/05 13:48:14;;;;;;;2.87;1.07;;;;;;;12.00;55.58;97698.00;6139623;29;20564;-59
2024/02/05 13:51:16;;;;;;;7.03;1.30;;;;;;;12.06;55.17;97721.03;6140076;29;20333;-58
2024/02/05 13:54:19;;;;;;;2.83;0.97;;;;;;;12.19;53.26;97717.16;6140386;29;20702;-59
2024/02/05 13:57:21;;;;;;;3.37;1.17;;;;;;;12.12;54.61;97728.84;6135493;29;20187;-57
2024/02/05 14:00:23;;;;;;;6.13;1.00;;;;;;;12.32;51.68;97724.78;6132532;29;20211;-58
2024/02/05 14:03:25;;;;;;;3.90;1.30;;;;;;;12.29;51.81;97711.94;6130397;29;20199;-57
2024/02/05 14:06:27;;;;;;;2.97;1.30;;;;;;;12.29;52.19;97730.63;6137384;29;20194;-58
2024/02/05 14:09:30;;;;;;;2.20;1.07;;;;;;;12.25;54.28;97716.94;6143161;29;20281;-59
2024/02/05 14:12:32;;;;;;;3.53;1.20;;;;;;;12.17;53.20;97727.28;6134194;29;20863;-58
2024/02/05 14:15:34;;;;;;;6.27;1.00;;;;;;;12.20;51.75;97722.25;6145011;29;20214;-57
2024/02/05 14:18:37;;;;;;;6.97;0.90;;;;;;;12.05;53.88;97728.22;6131999;29;20337;-57
2024/02/05 14:21:39;;;;;;;4.67;1.20;;;;;;;11.97;53.93;97736.69;6138141;29;20194;-58
2024/02/05 14:24:42;;;;;;;2.03;0.97;;;;;;;11.93;53.86;97727.56;6142458;29;20570;-57
2024/02/05 14:27:44;;;;;;;3.77;1.10;;;;;;;11.97;52.36;97715.34;6141421;29;20213;-58